Time;durP1;ratioP1;P1;durP2;ratioP2;P2;SDS_P1;SDS_P2;PMS_P1;PMS_P2;Temp;Humidity;BMP_temperature;BMP_pressure;BME280_temperature;BME280_humidity;BME280_pressure;Samples;Min_cycle;Max_cycle;Signal;HPM_P1;HPM_P2
2021/06/10 00:00:30;;;;;;;16.48;14.52;;;16.20;99.90;;;;;;5058240;28;20029;-76
2021/06/10 00:02:55;;;;;;;15.65;13.73;;;16.80;99.90;;;;;;5051691;28;20111;-75
2021/06/10 00:05:22;;;;;;;14.15;12.65;;;16.60;99.90;;;;;;5051613;28;20037;-76
2021/06/10 00:07:48;;;;;;;13.82;12.30;;;16.50;99.90;;;;;;5055827;28;20036;-76
2021/06/10 00:10:16;;;;;;;15.48;12.38;;;15.80;99.90;;;;;;5071341;28;20550;-75
2021/06/10 00:12:43;;;;;;;16.67;11.73;;;15.80;99.90;;;;;;5071602;28;20025;-76
2021/06/10 00:15:15;;;;;;;15.95;12.73;;;15.60;99.90;;;;;;5071585;28;20052;-75
2021/06/10 00:17:41;;;;;;;15.90;12.97;;;15.60;99.90;;;;;;5071557;28;20024;-75
2021/06/10 00:20:09;;;;;;;14.07;12.57;;;15.60;99.90;;;;;;5058746;28;20284;-75
2021/06/10 00:22:35;;;;;;;14.02;11.82;;;15.50;99.90;;;;;;5051630;28;20030;-75
2021/06/10 00:25:01;;;;;;;16.70;14.20;;;15.80;99.90;;;;;;5049980;28;20478;-75
2021/06/10 00:27:27;;;;;;;13.77;12.32;;;16.50;99.90;;;;;;5051479;28;20047;-75
2021/06/10 00:29:53;;;;;;;14.73;12.77;;;16.20;99.90;;;;;;5051752;28;20029;-76
2021/06/10 00:32:19;;;;;;;14.35;12.55;;;15.80;99.90;;;;;;5052284;28;20482;-76
2021/06/10 00:34:45;;;;;;;14.48;11.25;;;16.70;99.90;;;;;;5054928;28;20064;-76
2021/06/10 00:37:12;;;;;;;12.93;11.18;;;15.70;99.90;;;;;;5071970;28;20041;-75
2021/06/10 00:39:38;;;;;;;16.17;12.27;;;15.60;99.90;;;;;;5076092;28;20048;-75
2021/06/10 00:42:05;;;;;;;15.00;12.68;;;15.60;99.90;;;;;;5075095;28;20027;-75
2021/06/10 00:44:31;;;;;;;13.02;11.30;;;15.70;99.90;;;;;;5074962;28;20028;-75
2021/06/10 00:46:57;;;;;;;14.60;12.27;;;15.90;99.90;;;;;;5074953;28;20086;-75
2021/06/10 00:49:23;;;;;;;13.15;11.23;;;15.70;99.90;;;;;;5074716;28;20086;-75
2021/06/10 00:51:49;;;;;;;16.63;13.00;;;15.70;99.90;;;;;;5075607;28;20045;-77
2021/06/10 00:54:15;;;;;;;14.50;12.27;;;16.00;99.90;;;;;;5074693;28;20020;-75
2021/06/10 00:56:40;;;;;;;21.02;12.02;;;15.70;99.90;;;;;;5074826;28;20029;-75
2021/06/10 00:59:06;;;;;;;15.82;12.57;;;15.40;99.90;;;;;;5074285;28;20032;-75
2021/06/10 01:01:32;;;;;;;15.07;12.68;;;15.40;99.90;;;;;;5074876;28;20028;-75
2021/06/10 01:03:58;;;;;;;15.40;12.88;;;16.10;99.90;;;;;;5074696;28;20033;-75
2021/06/10 01:06:31;;;;;;;16.85;12.27;;;16.00;99.90;;;;;;5066619;28;20642;-75
2021/06/10 01:09:07;;;;;;;17.50;11.88;;;15.90;99.90;;;;;;5054222;28;20036;-74
2021/06/10 01:12:00;;;;;;;13.85;12.30;;;15.20;99.90;;;;;;5054488;28;20422;-75
2021/06/10 01:14:31;;;;;;;14.88;12.55;;;15.50;99.90;;;;;;5054475;28;20089;-75
2021/06/10 01:17:00;;;;;;;13.93;12.40;;;15.60;99.90;;;;;;5065413;28;20017;-74
2021/06/10 01:19:39;;;;;;;13.98;11.77;;;16.10;99.90;;;;;;5074137;28;20488;-75
2021/06/10 01:22:25;;;;;;;16.00;12.48;;;15.20;99.90;;;;;;5072715;28;20078;-74
2021/06/10 01:25:29;;;;;;;16.83;13.68;;;15.10;99.90;;;;;;5073032;28;20032;-75
2021/06/10 01:27:59;;;;;;;13.57;12.18;;;15.20;99.90;;;;;;5074327;28;20048;-75
2021/06/10 01:30:31;;;;;;;17.65;12.48;;;16.00;99.90;;;;;;5073931;28;20060;-74
2021/06/10 01:33:00;;;;;;;15.95;13.10;;;15.20;99.90;;;;;;5074303;28;20024;-75
2021/06/10 01:35:31;;;;;;;15.32;12.77;;;15.30;99.90;;;;;;5074032;28;20434;-75
2021/06/10 01:37:58;;;;;;;19.40;13.43;;;15.10;99.90;;;;;;5074188;28;20048;-75
2021/06/10 01:40:26;;;;;;;15.32;13.73;;;15.10;99.90;;;;;;5072023;28;20045;-75
2021/06/10 01:42:53;;;;;;;16.25;12.98;;;16.30;99.90;;;;;;5074198;28;20021;-74
2021/06/10 01:45:20;;;;;;;15.50;13.43;;;15.70;99.90;;;;;;5073937;28;20071;-75
2021/06/10 01:47:47;;;;;;;16.42;12.88;;;15.10;99.90;;;;;;5073663;28;20477;-75
2021/06/10 19:51:34;;;;;;;14.88;7.45;;;24.10;99.90;;;;;;5037279;28;20305;-76
2021/06/10 19:54:02;;;;;;;25.98;8.38;;;22.00;99.90;;;;;;5006103;28;20034;-76
2021/06/10 19:56:27;;;;;;;17.38;8.05;;;21.90;99.90;;;;;;5005842;28;20105;-76
2021/06/10 19:58:53;;;;;;;12.82;8.02;;;21.60;99.90;;;;;;5004505;28;20114;-77
2021/06/10 20:01:19;;;;;;;7.90;6.82;;;21.70;99.90;;;;;;5007220;28;20087;-77
2021/06/10 20:03:46;;;;;;;9.45;6.45;;;21.60;99.90;;;;;;5004216;28;20026;-76
2021/06/10 20:06:13;;;;;;;8.93;6.50;;;21.50;99.90;;;;;;5001435;28;20022;-77
2021/06/10 20:08:39;;;;;;;7.55;6.85;;;21.40;99.90;;;;;;5003292;28;20496;-76
2021/06/10 20:11:07;;;;;;;7.35;6.65;;;21.40;99.90;;;;;;5002491;28;20054;-77
2021/06/10 20:13:33;;;;;;;8.63;7.07;;;21.40;99.90;;;;;;5004990;28;20037;-77
2021/06/10 20:15:59;;;;;;;7.75;6.43;;;21.40;99.90;;;;;;5005897;28;20026;-76
2021/06/10 20:18:25;;;;;;;9.88;6.55;;;22.30;99.90;;;;;;5005335;28;20505;-76
2021/06/10 20:20:51;;;;;;;8.02;6.82;;;21.20;99.90;;;;;;5004675;28;20030;-76
2021/06/10 20:23:17;;;;;;;9.82;6.68;;;21.20;99.90;;;;;;5004938;28;20034;-76
2021/06/10 20:25:43;;;;;;;12.35;7.10;;;21.00;99.90;;;;;;5002803;28;20030;-76
2021/06/10 20:30:53;;;;;;;7.75;6.78;;;20.80;99.90;;;;;;5000810;28;20033;-75
2021/06/10 20:33:19;;;;;;;8.07;7.07;;;20.60;99.90;;;;;;5003964;28;20030;-76
2021/06/10 20:35:45;;;;;;;11.85;7.15;;;20.50;99.90;;;;;;5005089;28;20018;-76
2021/06/10 20:38:11;;;;;;;7.82;7.13;;;20.50;99.90;;;;;;5004809;28;20482;-76
2021/06/10 20:40:37;;;;;;;9.55;7.20;;;20.40;99.90;;;;;;5004382;28;20034;-76
2021/06/10 20:43:07;;;;;;;11.45;7.95;;;20.30;99.90;;;;;;5004328;28;20030;-76
2021/06/10 20:45:35;;;;;;;8.82;7.43;;;20.30;99.90;;;;;;5004630;28;20033;-76
2021/06/10 20:48:02;;;;;;;13.00;7.50;;;20.20;99.90;;;;;;5004705;28;20057;-76
2021/06/10 20:50:29;;;;;;;7.93;6.70;;;20.20;99.90;;;;;;5003837;28;20034;-76
2021/06/10 20:52:55;;;;;;;17.95;8.25;;;20.00;99.90;;;;;;5004168;28;20027;-75
2021/06/10 20:55:22;;;;;;;9.07;6.80;;;19.90;99.90;;;;;;5004420;28;20018;-76
2021/06/10 20:57:48;;;;;;;10.50;7.55;;;19.80;99.90;;;;;;5004169;28;20394;-76
2021/06/10 21:00:14;;;;;;;8.13;7.32;;;19.70;99.90;;;;;;5002505;28;20030;-75
2021/06/10 21:02:42;;;;;;;10.65;7.90;;;19.70;99.90;;;;;;4993957;28;20458;-76
2021/06/10 21:05:09;;;;;;;8.27;7.43;;;19.70;99.90;;;;;;4991581;28;20036;-77
2021/06/10 21:07:35;;;;;;;8.15;7.35;;;19.60;99.90;;;;;;4990859;28;20433;-75
2021/06/10 21:10:01;;;;;;;9.32;7.03;;;19.60;99.90;;;;;;4991133;28;20034;-78
2021/06/10 21:12:27;;;;;;;11.90;7.18;;;19.50;99.90;;;;;;4984307;28;20030;-76
2021/06/10 21:14:53;;;;;;;8.85;7.55;;;19.50;99.90;;;;;;4991112;28;20091;-76
2021/06/10 21:17:19;;;;;;;8.23;7.28;;;19.50;99.90;;;;;;4992159;28;20023;-76
2021/06/10 21:19:46;;;;;;;10.05;7.43;;;19.40;99.90;;;;;;4991361;28;20037;-75
2021/06/10 21:22:12;;;;;;;9.00;8.07;;;19.40;99.90;;;;;;4991823;28;20435;-76
2021/06/10 21:24:37;;;;;;;11.73;7.97;;;19.70;99.90;;;;;;4994652;28;20030;-77
2021/06/10 21:27:04;;;;;;;9.60;8.60;;;19.30;99.90;;;;;;4991867;28;20445;-76
2021/06/10 21:29:30;;;;;;;10.23;8.00;;;19.10;99.90;;;;;;4991519;28;20444;-77
2021/06/10 21:31:56;;;;;;;9.98;8.38;;;19.00;99.90;;;;;;4992343;28;20023;-77
2021/06/10 21:34:22;;;;;;;8.63;7.72;;;18.90;99.90;;;;;;4991530;28;20022;-77
2021/06/10 21:36:48;;;;;;;8.73;7.65;;;18.80;99.90;;;;;;4991569;28;20026;-77
2021/06/10 21:39:14;;;;;;;11.52;7.95;;;18.80;99.90;;;;;;4991060;28;20033;-76
2021/06/10 21:41:40;;;;;;;9.27;7.63;;;18.70;99.90;;;;;;4991401;28;20376;-77
2021/06/10 21:44:08;;;;;;;10.32;8.23;;;18.70;99.90;;;;;;4991279;28;20030;-76
2021/06/10 21:46:34;;;;;;;8.95;8.00;;;18.60;99.90;;;;;;4991472;28;20029;-77
2021/06/10 21:48:59;;;;;;;9.50;8.30;;;18.50;99.90;;;;;;4991012;28;20026;-76
2021/06/10 21:51:25;;;;;;;9.43;8.32;;;18.40;99.90;;;;;;4991351;28;20046;-76
2021/06/10 21:53:50;;;;;;;9.65;8.63;;;18.30;99.90;;;;;;4989883;28;20038;-77
2021/06/10 21:56:16;;;;;;;9.55;8.55;;;19.50;99.90;;;;;;4989878;28;20030;-77
2021/06/10 21:58:42;;;;;;;9.40;8.50;;;18.70;99.90;;;;;;4989615;28;20033;-77
2021/06/10 22:01:08;;;;;;;9.02;8.05;;;18.80;99.90;;;;;;4990447;28;20371;-76
2021/06/10 22:03:35;;;;;;;8.55;7.57;;;18.80;99.90;;;;;;4991313;28;20660;-75
2021/06/10 22:06:03;;;;;;;8.73;7.80;;;18.90;99.90;;;;;;4991259;28;20383;-76
2021/06/10 22:08:29;;;;;;;8.90;8.00;;;18.80;99.90;;;;;;4991234;28;20041;-76
2021/06/10 22:10:55;;;;;;;8.30;7.50;;;18.70;99.90;;;;;;4990612;28;20018;-76
2021/06/10 22:13:20;;;;;;;11.27;7.57;;;18.70;99.90;;;;;;4989839;28;20411;-76
2021/06/10 22:15:46;;;;;;;8.40;7.60;;;18.80;99.90;;;;;;4990119;28;20031;-76
2021/06/10 22:18:17;;;;;;;9.77;7.95;;;18.80;99.90;;;;;;4991336;28;20030;-76
2021/06/10 22:20:44;;;;;;;10.13;7.80;;;18.80;99.90;;;;;;4989207;28;20500;-75
2021/06/10 22:23:11;;;;;;;8.82;7.90;;;18.90;99.90;;;;;;4991020;28;20046;-75
2021/06/10 22:25:37;;;;;;;10.57;8.32;;;18.70;99.90;;;;;;4991560;28;20061;-76
2021/06/10 22:28:04;;;;;;;8.75;7.82;;;18.80;99.90;;;;;;4991143;28;20045;-76
2021/06/10 22:30:32;;;;;;;9.40;8.05;;;18.80;99.90;;;;;;4990134;28;20031;-76
2021/06/10 22:33:03;;;;;;;11.10;7.93;;;18.80;99.90;;;;;;4991004;28;20028;-76
2021/06/10 22:35:32;;;;;;;8.57;7.70;;;18.60;99.90;;;;;;4991189;28;20030;-77
2021/06/10 22:37:58;;;;;;;12.52;7.90;;;18.60;99.90;;;;;;4990664;28;20022;-77
2021/06/10 22:40:34;;;;;;;8.60;7.80;;;18.50;99.90;;;;;;4990046;28;20100;-76
2021/06/10 22:43:00;;;;;;;10.07;7.82;;;18.40;99.90;;;;;;4990388;28;20076;-75
2021/06/10 22:45:29;;;;;;;8.60;7.70;;;18.30;99.90;;;;;;4990574;28;20096;-76
2021/06/10 22:47:57;;;;;;;10.18;7.68;;;18.20;99.90;;;;;;4990715;28;20054;-76
2021/06/10 22:50:25;;;;;;;11.23;8.15;;;18.20;99.90;;;;;;4989866;28;20110;-76
2021/06/10 22:52:51;;;;;;;9.15;8.13;;;18.20;99.90;;;;;;4990446;28;20091;-76
2021/06/10 22:55:17;;;;;;;8.90;8.00;;;18.10;99.90;;;;;;4989259;28;20475;-78
2021/06/10 22:57:43;;;;;;;9.15;8.05;;;18.00;99.90;;;;;;4990020;28;20026;-76
2021/06/10 23:00:09;;;;;;;12.68;8.20;;;18.00;99.90;;;;;;4989765;28;20083;-76
2021/06/10 23:02:35;;;;;;;11.20;8.05;;;18.00;99.90;;;;;;4990370;28;20034;-76
2021/06/10 23:05:01;;;;;;;10.13;9.13;;;18.00;99.90;;;;;;4990417;28;20027;-78
2021/06/10 23:07:27;;;;;;;10.35;8.43;;;18.00;99.90;;;;;;4990492;28;20030;-76
2021/06/10 23:09:53;;;;;;;12.40;8.50;;;17.80;99.90;;;;;;4989746;28;20069;-77
2021/06/10 23:12:18;;;;;;;12.35;9.30;;;17.80;99.90;;;;;;4990277;28;20513;-77
2021/06/10 23:14:44;;;;;;;12.77;8.43;;;18.60;99.90;;;;;;4989933;28;20517;-77
2021/06/10 23:17:10;;;;;;;11.60;8.88;;;17.70;99.90;;;;;;4990110;28;20065;-77
2021/06/10 23:19:38;;;;;;;9.32;8.43;;;17.80;99.90;;;;;;4989743;28;20034;-76
2021/06/10 23:22:04;;;;;;;12.07;9.82;;;17.60;99.90;;;;;;4990423;28;20483;-76
2021/06/10 23:24:30;;;;;;;10.52;9.00;;;17.60;99.90;;;;;;4989538;28;20031;-75
2021/06/10 23:26:55;;;;;;;11.05;9.60;;;17.60;99.90;;;;;;4989927;28;20042;-76
2021/06/10 23:29:21;;;;;;;11.40;10.05;;;17.50;99.90;;;;;;4989233;28;20514;-76
2021/06/10 23:31:47;;;;;;;10.30;9.30;;;17.40;99.90;;;;;;4990005;28;20034;-75
2021/06/10 23:34:12;;;;;;;13.95;9.57;;;17.30;99.90;;;;;;4989836;28;20080;-75
2021/06/10 23:36:38;;;;;;;9.68;8.48;;;17.30;99.90;;;;;;4989856;28;20027;-75
2021/06/10 23:39:04;;;;;;;13.93;9.05;;;17.30;99.90;;;;;;4989298;28;20026;-75
2021/06/10 23:41:29;;;;;;;10.30;9.30;;;17.30;99.90;;;;;;4989923;28;20033;-75
2021/06/10 23:43:55;;;;;;;9.38;8.48;;;17.30;99.90;;;;;;4989798;28;20072;-75
2021/06/10 23:46:21;;;;;;;11.65;9.10;;;17.30;99.90;;;;;;4989994;28;20034;-75
2021/06/10 23:48:46;;;;;;;11.35;9.57;;;17.50;99.90;;;;;;4989760;28;20046;-75
2021/06/10 23:51:12;;;;;;;12.90;9.15;;;17.60;99.90;;;;;;4989319;28;20402;-75
2021/06/10 23:53:38;;;;;;;11.80;9.98;;;17.20;99.90;;;;;;4989245;28;20068;-75
2021/06/10 23:56:03;;;;;;;11.13;9.15;;;17.20;99.90;;;;;;4989733;28;20087;-75
2021/06/10 23:58:29;;;;;;;9.68;8.73;;;17.00;99.90;;;;;;4989351;28;20035;-75
